Time;durP1;ratioP1;P1;durP2;ratioP2;P2;SDS_P1;SDS_P2;PMS_P1;PMS_P2;Temp;Humidity;BMP_temperature;BMP_pressure;BME280_temperature;BME280_humidity;BME280_pressure;Samples;Min_cycle;Max_cycle;Signal;HPM_P1;HPM_P2
2022/10/12 00:02:15;;;;;;;2.80;2.53;;;20.70;76.50;;;;;;5127478;27;20428;-66
2022/10/12 00:04:46;;;;;;;3.10;2.50;;;20.70;77.40;;;;;;5122424;27;20450;-66
2022/10/12 00:07:18;;;;;;;2.10;1.87;;;20.60;78.10;;;;;;5130120;27;20518;-66
2022/10/12 00:09:49;;;;;;;2.40;1.80;;;20.70;76.20;;;;;;5135662;27;20427;-65
2022/10/12 00:12:20;;;;;;;2.47;1.63;;;20.60;76.30;;;;;;5139661;27;20498;-66
2022/10/12 00:14:51;;;;;;;1.47;1.23;;;20.60;78.30;;;;;;5119209;27;20524;-66
2022/10/12 00:17:21;;;;;;;2.57;1.70;;;20.60;79.50;;;;;;5137843;27;20532;-66
2022/10/12 00:19:52;;;;;;;2.13;1.30;;;20.40;79.50;;;;;;5126370;27;20455;-66
2022/10/12 00:22:25;;;;;;;2.20;1.77;;;20.50;78.20;;;;;;5132175;27;20437;-66
2022/10/12 00:24:55;;;;;;;3.03;1.63;;;20.40;79.40;;;;;;5136856;27;20457;-66
2022/10/12 00:27:26;;;;;;;2.97;1.20;;;20.30;80.30;;;;;;5119507;27;20940;-66
2022/10/12 00:29:57;;;;;;;3.80;1.80;;;20.30;80.70;;;;;;5118395;27;20528;-66
2022/10/12 00:32:28;;;;;;;2.20;1.43;;;20.30;82.80;;;;;;5135612;27;20423;-66
2022/10/12 00:34:58;;;;;;;2.60;1.43;;;20.30;81.90;;;;;;5136658;27;20505;-66
2022/10/12 00:37:31;;;;;;;3.23;1.63;;;20.20;83.90;;;;;;5133524;27;20505;-66
2022/10/12 00:40:02;;;;;;;2.00;1.90;;;20.10;84.60;;;;;;5129999;27;20435;-67
2022/10/12 00:42:33;;;;;;;1.37;1.27;;;19.90;86.60;;;;;;5136332;27;20552;-66
2022/10/12 00:45:04;;;;;;;2.00;1.63;;;19.90;87.80;;;;;;5131002;27;20479;-67
2022/10/12 00:47:36;;;;;;;6.10;2.10;;;20.00;86.70;;;;;;5135729;27;20463;-67
2022/10/12 00:50:13;;;;;;;2.00;1.50;;;20.00;88.10;;;;;;5118473;27;20458;-67
2022/10/12 00:52:56;;;;;;;2.97;1.93;;;19.90;90.30;;;;;;5133769;27;20818;-67
2022/10/12 00:55:30;;;;;;;2.40;2.20;;;19.80;91.10;;;;;;5129751;27;20415;-66
2022/10/12 00:58:01;;;;;;;4.57;1.53;;;19.60;91.60;;;;;;5129597;27;20817;-67
2022/10/12 01:00:32;;;;;;;2.27;1.50;;;19.50;91.90;;;;;;5121700;27;20436;-69
2022/10/12 01:03:03;;;;;;;3.07;1.97;;;19.50;93.10;;;;;;5143272;27;20446;-65
2022/10/12 01:05:34;;;;;;;3.20;1.87;;;19.40;93.10;;;;;;5126762;27;20429;-66
2022/10/12 01:08:07;;;;;;;2.83;1.67;;;19.30;93.70;;;;;;5134952;27;20471;-65
2022/10/12 01:10:38;;;;;;;1.80;1.63;;;19.10;94.50;;;;;;5131011;27;20452;-66
2022/10/12 01:13:09;;;;;;;1.70;1.60;;;19.00;95.20;;;;;;5135778;27;21028;-66
2022/10/12 01:15:46;;;;;;;2.83;2.23;;;18.90;96.10;;;;;;5142426;27;20421;-68
2022/10/12 01:18:21;;;;;;;2.10;1.50;;;18.80;96.30;;;;;;5141029;27;20419;-64
2022/10/12 01:21:19;;;;;;;2.57;2.20;;;18.70;97.00;;;;;;5138882;27;20431;-65
2022/10/12 01:24:28;;;;;;;4.30;1.90;;;18.60;97.70;;;;;;5131740;27;20441;-67
2022/10/12 01:27:30;;;;;;;2.20;2.00;;;18.50;98.30;;;;;;5121974;27;20492;-66
2022/10/12 01:30:15;;;;;;;2.07;1.87;;;18.40;98.80;;;;;;5123792;27;20448;-67
2022/10/12 01:33:00;;;;;;;3.80;2.73;;;18.30;99.50;;;;;;5126250;28;20437;-66
2022/10/12 01:35:38;;;;;;;4.30;2.17;;;18.20;99.90;;;;;;5129905;28;20500;-66
2022/10/12 01:38:19;;;;;;;4.93;1.97;;;18.10;99.90;;;;;;5136274;28;20490;-65
2022/10/12 01:40:56;;;;;;;2.40;1.80;;;18.00;99.90;;;;;;5119665;28;20450;-65
2022/10/12 01:43:35;;;;;;;2.50;2.30;;;17.90;99.90;;;;;;5134624;28;20449;-65
2022/10/12 01:46:53;;;;;;;4.33;2.00;;;17.70;99.90;;;;;;5131657;27;20462;-67
2022/10/12 01:49:27;;;;;;;2.70;2.43;;;17.60;99.90;;;;;;5122796;27;20780;-67
2022/10/12 01:52:23;;;;;;;3.67;2.13;;;17.50;99.90;;;;;;5114506;28;20433;-65
2022/10/12 01:55:20;;;;;;;2.97;2.40;;;17.50;99.90;;;;;;5119032;27;20585;-66
2022/10/12 01:58:12;;;;;;;5.00;2.30;;;17.30;99.90;;;;;;5132856;28;20520;-65
2022/10/12 02:00:48;;;;;;;2.20;2.00;;;17.20;99.90;;;;;;5129658;27;21301;-69
2022/10/12 02:03:27;;;;;;;4.83;2.80;;;17.10;99.90;;;;;;5122349;28;20851;-67
2022/10/12 02:06:01;;;;;;;5.70;2.80;;;17.00;99.90;;;;;;5141947;28;20441;-66
2022/10/12 02:08:36;;;;;;;2.90;1.93;;;17.00;99.90;;;;;;5136188;27;20493;-66
2022/10/12 02:11:09;;;;;;;7.10;2.77;;;16.90;99.90;;;;;;5138326;28;20588;-67
2022/10/12 02:13:45;;;;;;;2.77;2.57;;;16.90;99.90;;;;;;5130472;28;20839;-66
2022/10/12 02:16:19;;;;;;;3.87;2.90;;;16.80;99.90;;;;;;5134619;27;20465;-66
2022/10/12 02:18:55;;;;;;;4.40;2.77;;;16.70;99.90;;;;;;5125233;27;20539;-66
2022/10/12 02:21:30;;;;;;;6.80;2.40;;;16.70;99.90;;;;;;5129199;28;20452;-66
2022/10/12 02:24:03;;;;;;;3.00;2.60;;;16.60;99.90;;;;;;5138490;27;20509;-67
2022/10/12 02:26:36;;;;;;;3.73;1.97;;;16.50;99.90;;;;;;5121945;27;20563;-67
2022/10/12 02:29:11;;;;;;;5.27;3.20;;;16.40;99.90;;;;;;5137965;27;20531;-68
2022/10/12 02:31:50;;;;;;;6.10;3.07;;;16.30;99.90;;;;;;5135489;27;20496;-68
2022/10/12 02:34:26;;;;;;;5.40;3.20;;;16.30;99.90;;;;;;5128442;27;20465;-68
2022/10/12 02:37:03;;;;;;;7.10;3.73;;;16.30;99.90;;;;;;5141942;27;20501;-69
2022/10/12 02:39:40;;;;;;;4.80;3.67;;;16.20;99.90;;;;;;5128613;27;20471;-70
2022/10/12 02:42:17;;;;;;;6.87;4.07;;;16.10;99.90;;;;;;5121248;27;20458;-69
2022/10/12 02:44:49;;;;;;;5.17;3.40;;;16.10;99.90;;;;;;5137772;27;20449;-69
2022/10/12 02:47:21;;;;;;;5.40;3.60;;;16.10;99.90;;;;;;5133323;27;20485;-69
2022/10/12 02:49:56;;;;;;;6.13;4.10;;;16.00;99.90;;;;;;5138778;27;20460;-69
2022/10/12 02:52:27;;;;;;;5.10;4.30;;;15.90;99.90;;;;;;5127768;27;20520;-70
2022/10/12 02:54:58;;;;;;;6.20;3.47;;;15.80;99.90;;;;;;5132751;27;20483;-68
2022/10/12 02:57:29;;;;;;;6.10;4.40;;;15.80;99.90;;;;;;5140112;27;20468;-68
2022/10/12 02:59:59;;;;;;;3.87;3.47;;;15.70;99.90;;;;;;5130429;27;20507;-68
2022/10/12 03:02:30;;;;;;;3.00;2.47;;;15.70;99.90;;;;;;5125195;27;20490;-66
2022/10/12 03:05:03;;;;;;;5.17;3.33;;;15.60;99.90;;;;;;5123235;27;20465;-66
2022/10/12 03:07:33;;;;;;;3.83;3.00;;;15.60;99.90;;;;;;5138989;27;20597;-67
2022/10/12 03:10:05;;;;;;;3.63;3.20;;;15.60;99.90;;;;;;5118790;27;20514;-67
2022/10/12 03:12:36;;;;;;;3.93;2.80;;;15.60;99.90;;;;;;5123389;27;20457;-67
2022/10/12 03:15:08;;;;;;;3.57;2.77;;;15.50;99.90;;;;;;5145343;27;20444;-67
2022/10/12 03:17:38;;;;;;;3.87;3.10;;;15.50;99.90;;;;;;5145173;27;20468;-66
2022/10/12 03:20:13;;;;;;;3.67;2.10;;;15.50;99.90;;;;;;5145561;27;20551;-67
2022/10/12 03:22:44;;;;;;;4.33;2.90;;;15.50;99.90;;;;;;5142906;27;20432;-66
2022/10/12 03:25:14;;;;;;;5.43;2.27;;;15.40;99.90;;;;;;5139984;27;20437;-66
2022/10/12 03:27:45;;;;;;;3.17;2.10;;;15.40;99.90;;;;;;5144215;27;20455;-66
2022/10/12 03:30:16;;;;;;;3.97;2.60;;;15.40;99.90;;;;;;5144870;27;20505;-67
2022/10/12 03:32:47;;;;;;;4.30;2.60;;;15.40;99.90;;;;;;5144374;27;20522;-67
2022/10/12 03:35:19;;;;;;;4.63;2.03;;;15.40;99.90;;;;;;5134815;27;20953;-67
2022/10/12 03:37:50;;;;;;;3.33;2.30;;;15.30;99.90;;;;;;5129960;27;20438;-68
2022/10/12 03:40:21;;;;;;;3.97;2.40;;;15.30;99.90;;;;;;5138760;27;20513;-69
2022/10/12 03:42:52;;;;;;;2.90;2.40;;;15.30;99.90;;;;;;5143993;27;20420;-68
2022/10/12 03:45:22;;;;;;;2.30;2.10;;;15.30;99.90;;;;;;5144948;27;20449;-67
2022/10/12 03:47:53;;;;;;;3.23;2.30;;;15.30;99.90;;;;;;5144142;27;20488;-67
2022/10/12 03:50:26;;;;;;;3.70;2.27;;;15.30;99.90;;;;;;5143358;27;20431;-67
2022/10/12 03:52:56;;;;;;;2.63;2.40;;;15.30;99.90;;;;;;5141489;27;20408;-67
2022/10/12 03:55:27;;;;;;;3.37;2.10;;;15.30;99.90;;;;;;5145161;27;20433;-67
2022/10/12 03:57:58;;;;;;;2.00;1.80;;;15.40;99.90;;;;;;5143927;27;20451;-67
2022/10/12 04:00:30;;;;;;;1.93;1.73;;;15.40;99.90;;;;;;5144108;27;20449;-67
2022/10/12 04:03:02;;;;;;;2.37;1.93;;;15.40;99.90;;;;;;5120084;27;20453;-66
2022/10/12 04:05:35;;;;;;;2.57;2.30;;;15.40;99.90;;;;;;5133983;27;20456;-67
2022/10/12 04:08:07;;;;;;;3.07;2.03;;;15.40;99.90;;;;;;5129877;27;20508;-66
2022/10/12 04:10:37;;;;;;;2.17;1.97;;;15.40;99.90;;;;;;5120185;27;20499;-66
2022/10/12 04:13:08;;;;;;;3.07;2.10;;;15.30;99.90;;;;;;5117028;27;20453;-66
2022/10/12 04:15:39;;;;;;;2.37;1.70;;;15.40;99.90;;;;;;5119382;27;20737;-66
2022/10/12 04:18:10;;;;;;;1.97;1.87;;;15.40;99.90;;;;;;5124878;27;20428;-66
2022/10/12 04:20:42;;;;;;;2.53;2.20;;;15.40;99.90;;;;;;5128313;27;20454;-66
2022/10/12 04:23:13;;;;;;;3.07;1.67;;;15.30;99.90;;;;;;5112365;27;20448;-66
2022/10/12 04:25:44;;;;;;;2.70;1.90;;;15.30;99.90;;;;;;5138321;27;20517;-66
2022/10/12 04:28:15;;;;;;;4.77;2.27;;;15.30;99.90;;;;;;5141347;27;20485;-66
2022/10/12 04:30:47;;;;;;;3.93;1.80;;;15.30;99.90;;;;;;5142899;27;20463;-65
2022/10/12 04:33:17;;;;;;;2.63;2.03;;;15.30;99.90;;;;;;5143259;27;20444;-66
2022/10/12 04:35:50;;;;;;;1.83;1.70;;;15.30;99.90;;;;;;5142606;27;20584;-66
2022/10/12 04:38:20;;;;;;;1.90;1.30;;;15.30;99.90;;;;;;5143750;27;20434;-65
2022/10/12 04:40:51;;;;;;;4.47;1.90;;;15.30;99.90;;;;;;5138688;27;20423;-65
2022/10/12 04:43:22;;;;;;;2.80;1.80;;;15.30;99.90;;;;;;5137958;27;20513;-65
2022/10/12 04:45:57;;;;;;;2.23;1.40;;;15.40;99.90;;;;;;5142760;27;20897;-65
2022/10/12 04:48:28;;;;;;;1.60;1.40;;;15.30;99.90;;;;;;5143300;27;20529;-65
2022/10/12 04:51:01;;;;;;;2.23;2.00;;;15.40;99.90;;;;;;5143315;27;20601;-65
2022/10/12 04:53:31;;;;;;;5.17;1.50;;;15.40;99.90;;;;;;5143072;27;20433;-65
2022/10/12 04:56:05;;;;;;;1.40;1.03;;;15.50;99.90;;;;;;5135645;27;20457;-65
2022/10/12 04:58:35;;;;;;;3.10;1.57;;;15.60;99.90;;;;;;5131766;27;20633;-66
2022/10/12 05:01:06;;;;;;;1.97;1.27;;;15.60;99.90;;;;;;5124371;27;20917;-67
2022/10/12 05:03:38;;;;;;;2.37;1.53;;;15.50;99.90;;;;;;5136021;27;20460;-67
2022/10/12 05:06:12;;;;;;;1.80;1.37;;;15.40;99.90;;;;;;5142234;27;20453;-67
2022/10/12 05:08:43;;;;;;;2.00;1.63;;;15.40;99.90;;;;;;5142706;27;20464;-66
2022/10/12 05:11:14;;;;;;;1.77;1.67;;;15.30;99.90;;;;;;5142997;27;20437;-65
2022/10/12 05:13:45;;;;;;;1.37;1.27;;;15.20;99.90;;;;;;5142322;27;20459;-65
2022/10/12 05:16:15;;;;;;;3.57;1.87;;;15.10;99.90;;;;;;5140042;27;20593;-64
2022/10/12 05:18:46;;;;;;;1.40;1.30;;;15.10;99.90;;;;;;5143136;27;20474;-65
2022/10/12 05:21:19;;;;;;;3.73;2.27;;;15.00;99.90;;;;;;5142752;27;20486;-65
2022/10/12 05:23:53;;;;;;;1.97;1.50;;;15.00;99.90;;;;;;5142585;27;20561;-64
2022/10/12 05:26:23;;;;;;;3.80;1.90;;;14.90;99.90;;;;;;5132665;27;20459;-64
2022/10/12 05:28:54;;;;;;;2.50;1.53;;;14.90;99.90;;;;;;5127916;27;20530;-64
2022/10/12 05:31:25;;;;;;;2.20;1.80;;;14.80;99.90;;;;;;5130446;27;20473;-64
2022/10/12 05:33:56;;;;;;;2.70;2.13;;;14.80;99.90;;;;;;5117216;28;20470;-64
2022/10/12 05:36:28;;;;;;;2.03;1.50;;;14.80;99.90;;;;;;5140592;28;20437;-64
2022/10/12 05:38:59;;;;;;;2.30;1.40;;;14.80;99.90;;;;;;5143061;27;20449;-64
2022/10/12 05:41:30;;;;;;;2.70;1.77;;;14.70;99.90;;;;;;5140609;27;20448;-64
2022/10/12 05:44:00;;;;;;;2.80;1.50;;;14.50;99.90;;;;;;5131448;28;20505;-64
2022/10/12 05:46:31;;;;;;;3.73;1.90;;;14.50;99.90;;;;;;5128007;28;20540;-63
2022/10/12 05:49:02;;;;;;;2.30;1.97;;;14.40;99.90;;;;;;5133805;27;20510;-64
2022/10/12 05:51:34;;;;;;;1.80;1.20;;;14.20;99.90;;;;;;5125955;28;20548;-64
2022/10/12 05:54:05;;;;;;;2.50;1.60;;;14.30;99.90;;;;;;5127732;28;20512;-64
2022/10/12 05:56:36;;;;;;;4.30;1.90;;;14.10;99.90;;;;;;5136114;27;20459;-63
2022/10/12 05:59:07;;;;;;;2.00;1.57;;;14.10;99.90;;;;;;5127825;28;20526;-64
2022/10/12 06:01:38;;;;;;;2.33;1.50;;;14.10;99.90;;;;;;5134723;28;20470;-64
2022/10/12 06:04:09;;;;;;;2.50;1.43;;;14.00;99.90;;;;;;5131342;27;20529;-63
2022/10/12 06:06:42;;;;;;;5.20;1.67;;;14.10;99.90;;;;;;5135458;27;20485;-63
2022/10/12 06:09:12;;;;;;;4.67;1.90;;;14.00;99.90;;;;;;5141750;27;20524;-64
2022/10/12 06:11:44;;;;;;;1.60;1.40;;;14.00;99.90;;;;;;5130007;27;20456;-63
2022/10/12 06:14:16;;;;;;;4.43;1.43;;;13.90;99.90;;;;;;5135293;27;20468;-63
2022/10/12 06:16:46;;;;;;;1.40;1.30;;;13.90;99.90;;;;;;5144938;27;20445;-63
2022/10/12 06:19:23;;;;;;;1.53;1.27;;;13.80;99.90;;;;;;5145665;27;20440;-63
2022/10/12 06:21:55;;;;;;;3.83;2.33;;;13.70;99.90;;;;;;5134962;27;20440;-64
2022/10/12 06:24:26;;;;;;;1.67;1.53;;;13.70;99.90;;;;;;5132524;27;20452;-63
2022/10/12 06:26:57;;;;;;;3.77;1.70;;;13.60;99.90;;;;;;5134497;27;20568;-63
2022/10/12 06:29:28;;;;;;;1.47;1.40;;;13.60;99.90;;;;;;5129914;27;20874;-63
2022/10/12 06:32:00;;;;;;;3.17;1.70;;;13.60;99.90;;;;;;5133467;27;20911;-63
2022/10/12 06:34:31;;;;;;;8.03;1.93;;;13.60;99.90;;;;;;5121930;27;20531;-63
2022/10/12 06:37:03;;;;;;;1.80;1.30;;;13.50;99.90;;;;;;5127650;27;20887;-63
2022/10/12 06:39:34;;;;;;;2.10;1.90;;;13.50;99.90;;;;;;5124640;27;20444;-63
2022/10/12 06:42:06;;;;;;;2.60;1.80;;;13.50;99.90;;;;;;5122733;27;20518;-63
2022/10/12 06:44:38;;;;;;;2.53;1.70;;;13.40;99.90;;;;;;5125053;27;20492;-63
2022/10/12 06:47:09;;;;;;;2.50;1.70;;;13.40;99.90;;;;;;5132247;27;20453;-64
2022/10/12 06:49:40;;;;;;;7.17;2.17;;;13.40;99.90;;;;;;5134783;27;20511;-64
2022/10/12 06:52:12;;;;;;;3.50;1.90;;;13.40;99.90;;;;;;5125050;27;20753;-63
2022/10/12 06:54:43;;;;;;;4.50;1.70;;;13.40;99.90;;;;;;5137769;27;20529;-63
2022/10/12 06:57:14;;;;;;;3.50;2.10;;;13.40;99.90;;;;;;5134649;27;20456;-63
2022/10/12 06:59:44;;;;;;;2.27;2.07;;;13.30;99.90;;;;;;5139072;27;20464;-63
2022/10/12 07:02:15;;;;;;;1.50;1.37;;;13.30;99.90;;;;;;5125230;27;20474;-63
2022/10/12 07:04:49;;;;;;;2.87;1.90;;;13.20;99.90;;;;;;5130802;27;20450;-63
2022/10/12 07:07:22;;;;;;;4.30;2.50;;;13.10;99.90;;;;;;5124289;27;20493;-63
2022/10/12 07:09:53;;;;;;;1.67;1.57;;;13.10;99.90;;;;;;5138359;27;20492;-63
2022/10/12 07:12:24;;;;;;;2.57;2.20;;;13.10;99.90;;;;;;5123296;27;20509;-63
2022/10/12 07:14:55;;;;;;;2.40;2.13;;;13.00;99.90;;;;;;5130724;27;20545;-63
2022/10/12 07:17:26;;;;;;;3.37;1.70;;;13.00;99.90;;;;;;5124237;27;20483;-63
2022/10/12 07:19:57;;;;;;;1.87;1.67;;;13.00;99.90;;;;;;5126226;27;20618;-64
2022/10/12 07:22:30;;;;;;;2.30;1.97;;;13.00;99.90;;;;;;5132413;27;20465;-63
2022/10/12 07:25:00;;;;;;;3.27;1.53;;;12.90;99.90;;;;;;5136077;27;20464;-63
2022/10/12 07:27:31;;;;;;;4.83;2.10;;;12.90;99.90;;;;;;5122648;27;20461;-63
2022/10/12 07:30:02;;;;;;;2.30;2.10;;;12.90;99.90;;;;;;5140264;27;20484;-63
2022/10/12 07:32:33;;;;;;;2.50;1.87;;;12.80;99.90;;;;;;5135842;27;20568;-63
2022/10/12 07:35:04;;;;;;;3.23;1.53;;;12.70;99.90;;;;;;5123726;27;20454;-64
2022/10/12 07:37:36;;;;;;;2.67;1.50;;;12.70;99.90;;;;;;5141401;27;20514;-63
2022/10/12 07:40:09;;;;;;;2.43;1.87;;;12.60;99.90;;;;;;5138021;27;20461;-63
2022/10/12 07:42:39;;;;;;;2.10;1.60;;;12.70;99.90;;;;;;5137653;27;20464;-63
2022/10/12 07:45:30;;;;;;;3.27;1.67;;;12.70;99.90;;;;;;5136403;27;20488;-63
2022/10/12 07:48:01;;;;;;;3.60;1.50;;;12.70;99.90;;;;;;5138252;27;20452;-63
2022/10/12 07:50:32;;;;;;;1.50;1.40;;;12.60;99.90;;;;;;5141052;27;20512;-63
2022/10/12 07:53:04;;;;;;;6.10;2.20;;;12.60;99.90;;;;;;5136903;27;20494;-63
2022/10/12 07:55:35;;;;;;;5.47;1.90;;;12.50;99.90;;;;;;5138931;27;20484;-63
2022/10/12 07:58:06;;;;;;;1.60;1.50;;;12.50;99.90;;;;;;5134042;27;20535;-63
2022/10/12 08:00:37;;;;;;;2.30;1.57;;;12.50;99.90;;;;;;5125599;27;20458;-63
2022/10/12 08:03:07;;;;;;;2.07;1.97;;;12.40;99.90;;;;;;5132926;27;20448;-63
2022/10/12 08:05:38;;;;;;;2.27;1.50;;;12.40;99.90;;;;;;5135303;27;20460;-64
2022/10/12 08:08:10;;;;;;;1.43;1.20;;;12.40;99.90;;;;;;5129194;27;20524;-63
2022/10/12 08:10:41;;;;;;;5.30;1.93;;;12.40;99.90;;;;;;5127666;27;20517;-63
2022/10/12 08:13:12;;;;;;;1.60;1.40;;;12.30;99.90;;;;;;5136985;27;20487;-63
2022/10/12 08:15:48;;;;;;;2.67;1.97;;;12.30;99.90;;;;;;5139780;27;20762;-64
2022/10/12 08:18:19;;;;;;;3.30;1.60;;;12.20;99.90;;;;;;5141705;27;20567;-63
2022/10/12 08:20:50;;;;;;;7.33;2.27;;;12.20;99.90;;;;;;5133117;27;20456;-63
2022/10/12 08:23:22;;;;;;;2.40;1.87;;;12.30;99.90;;;;;;5142021;27;20457;-63
2022/10/12 08:25:54;;;;;;;2.10;1.23;;;12.30;99.90;;;;;;5133679;27;20986;-63
2022/10/12 08:28:25;;;;;;;2.80;1.80;;;12.20;99.90;;;;;;5129479;27;20552;-63
2022/10/12 08:30:56;;;;;;;3.40;2.37;;;12.20;99.90;;;;;;5133361;27;20542;-63
2022/10/12 08:33:30;;;;;;;3.80;1.80;;;12.20;99.90;;;;;;5140836;27;20529;-63
2022/10/12 08:36:03;;;;;;;4.87;1.87;;;12.20;99.90;;;;;;5138631;27;20991;-63
2022/10/12 08:38:37;;;;;;;5.07;2.37;;;12.10;99.90;;;;;;5120182;27;20478;-63
2022/10/12 08:41:21;;;;;;;3.00;2.73;;;12.10;99.90;;;;;;5134429;27;20880;-62
2022/10/12 08:44:07;;;;;;;2.80;2.00;;;12.00;99.90;;;;;;5116594;27;20487;-63
2022/10/12 08:46:38;;;;;;;3.23;1.80;;;12.00;99.90;;;;;;5135857;27;20583;-63
2022/10/12 08:49:14;;;;;;;2.83;1.57;;;11.90;99.90;;;;;;5121610;27;20508;-63
2022/10/12 08:51:49;;;;;;;1.53;1.40;;;11.90;99.90;;;;;;5113808;27;20527;-63
2022/10/12 08:54:24;;;;;;;1.57;1.47;;;11.80;99.90;;;;;;5139009;27;20521;-63
2022/10/12 08:56:56;;;;;;;4.27;1.87;;;11.80;99.90;;;;;;5134194;27;20515;-63
2022/10/12 08:59:28;;;;;;;2.00;1.90;;;11.80;99.90;;;;;;5116909;27;20465;-63
2022/10/12 09:02:14;;;;;;;2.33;2.13;;;11.70;99.90;;;;;;5126963;27;20605;-63
2022/10/12 09:04:54;;;;;;;5.93;1.83;;;11.70;99.90;;;;;;5124145;27;20529;-63
2022/10/12 09:07:30;;;;;;;3.77;2.30;;;11.60;99.90;;;;;;5127718;27;20480;-63
2022/10/12 09:10:17;;;;;;;2.10;1.97;;;11.70;99.90;;;;;;5134929;27;20498;-63
2022/10/12 09:12:55;;;;;;;2.70;2.37;;;11.70;99.90;;;;;;5128641;27;20485;-63
2022/10/12 09:15:32;;;;;;;2.53;1.40;;;11.70;99.90;;;;;;5138828;27;20826;-63
2022/10/12 09:18:07;;;;;;;2.67;1.77;;;11.70;99.90;;;;;;5140903;27;20502;-64
2022/10/12 09:20:46;;;;;;;2.20;2.00;;;11.70;99.90;;;;;;5136106;27;20928;-63
2022/10/12 09:23:24;;;;;;;2.03;1.77;;;11.60;99.90;;;;;;5126007;27;20464;-63
2022/10/12 09:26:02;;;;;;;3.73;2.10;;;11.50;99.90;;;;;;5133775;27;20488;-63
2022/10/12 09:28:39;;;;;;;3.10;2.30;;;11.40;99.90;;;;;;5140257;27;20444;-63
2022/10/12 09:31:25;;;;;;;1.53;1.43;;;11.40;99.90;;;;;;5110622;27;20495;-64
2022/10/12 09:33:58;;;;;;;2.00;1.77;;;11.40;99.90;;;;;;5129549;28;20510;-64
2022/10/12 09:36:33;;;;;;;3.43;2.30;;;11.40;99.90;;;;;;5130917;27;20467;-63
2022/10/12 09:39:06;;;;;;;7.30;2.20;;;11.30;99.90;;;;;;5131776;27;20501;-63
2022/10/12 09:41:43;;;;;;;2.30;1.90;;;11.40;99.90;;;;;;5119247;28;20465;-63
2022/10/12 09:44:23;;;;;;;3.47;2.10;;;11.30;99.90;;;;;;5141183;27;20467;-63
2022/10/12 09:46:58;;;;;;;2.27;1.57;;;11.30;99.90;;;;;;5133638;27;20527;-63
2022/10/12 09:49:42;;;;;;;2.40;2.17;;;11.30;99.90;;;;;;5137121;27;20463;-63
2022/10/12 09:52:15;;;;;;;3.67;2.20;;;11.30;99.90;;;;;;5134060;28;20546;-63
2022/10/12 09:54:49;;;;;;;3.50;1.80;;;11.30;99.90;;;;;;5132585;27;20466;-63
2022/10/12 09:57:26;;;;;;;2.30;2.10;;;11.30;99.90;;;;;;5131838;28;20507;-63
2022/10/12 09:59:57;;;;;;;2.67;1.60;;;11.30;99.90;;;;;;5134769;27;20464;-63
2022/10/12 10:02:28;;;;;;;3.07;1.77;;;11.30;99.90;;;;;;5123868;28;20470;-63
2022/10/12 10:05:23;;;;;;;5.10;1.83;;;11.30;99.90;;;;;;5118368;28;20511;-63
2022/10/12 10:07:54;;;;;;;2.93;1.73;;;11.30;99.90;;;;;;5130092;27;20537;-63
2022/10/12 10:10:25;;;;;;;2.07;1.70;;;11.30;99.90;;;;;;5136074;27;20449;-63
2022/10/12 10:13:04;;;;;;;2.03;1.50;;;11.30;99.90;;;;;;5123247;28;20477;-63
2022/10/12 10:15:37;;;;;;;3.63;2.10;;;11.20;99.90;;;;;;5123124;28;20467;-63
2022/10/12 10:18:21;;;;;;;3.03;2.00;;;11.10;99.90;;;;;;5131982;27;20485;-63
2022/10/12 10:20:54;;;;;;;3.27;2.97;;;11.10;99.90;;;;;;5136972;28;20509;-63
2022/10/12 10:23:27;;;;;;;3.07;2.27;;;11.00;99.90;;;;;;5134432;27;20452;-63
2022/10/12 10:26:00;;;;;;;3.10;1.87;;;11.00;99.90;;;;;;5117217;28;20580;-63
2022/10/12 10:28:34;;;;;;;2.83;1.90;;;11.00;99.90;;;;;;5134891;27;20931;-63
2022/10/12 10:31:06;;;;;;;2.83;1.73;;;11.00;99.90;;;;;;5138745;27;20547;-63
2022/10/12 10:33:37;;;;;;;2.67;2.40;;;11.10;99.90;;;;;;5127142;28;20465;-63
2022/10/12 10:36:19;;;;;;;2.57;2.33;;;11.10;99.90;;;;;;5140017;27;20456;-63
2022/10/12 10:38:58;;;;;;;3.40;1.90;;;11.10;99.90;;;;;;5134515;27;20497;-63
2022/10/12 10:41:32;;;;;;;2.90;2.03;;;11.10;99.90;;;;;;5137724;28;20456;-63
2022/10/12 10:44:06;;;;;;;2.03;1.83;;;11.00;99.90;;;;;;5128091;28;20456;-64
2022/10/12 10:46:38;;;;;;;3.20;2.40;;;11.00;99.90;;;;;;5136298;28;20441;-63
2022/10/12 10:49:10;;;;;;;3.40;1.83;;;10.90;99.90;;;;;;5135909;27;20486;-63
2022/10/12 10:51:44;;;;;;;3.13;2.37;;;10.90;99.90;;;;;;5121753;27;20614;-63
2022/10/12 10:54:17;;;;;;;3.07;1.90;;;10.90;99.90;;;;;;5118293;27;20460;-63
2022/10/12 10:56:49;;;;;;;3.03;1.90;;;10.80;99.90;;;;;;5126037;27;20474;-63
2022/10/12 10:59:31;;;;;;;2.67;2.00;;;10.80;99.90;;;;;;5136789;27;20457;-63
2022/10/12 11:02:05;;;;;;;2.70;1.80;;;10.70;99.90;;;;;;5140511;27;20453;-63
2022/10/12 11:04:41;;;;;;;1.93;1.83;;;10.80;99.90;;;;;;5133279;27;20469;-63
2022/10/12 11:07:21;;;;;;;2.00;1.87;;;10.80;99.90;;;;;;5138460;27;20492;-63
2022/10/12 11:09:55;;;;;;;3.60;1.97;;;10.80;99.90;;;;;;5137725;27;20528;-63
2022/10/12 11:12:30;;;;;;;4.20;1.97;;;10.80;99.90;;;;;;5131327;27;20493;-63
2022/10/12 11:15:13;;;;;;;2.10;1.73;;;10.80;99.90;;;;;;5138275;27;20521;-63
2022/10/12 11:17:47;;;;;;;3.00;1.93;;;10.70;99.90;;;;;;5141156;27;20445;-63
2022/10/12 11:20:35;;;;;;;2.60;2.20;;;10.70;99.90;;;;;;5117319;27;20441;-63
2022/10/12 11:23:15;;;;;;;1.53;1.43;;;10.70;99.90;;;;;;5125237;27;20949;-63
2022/10/12 11:25:57;;;;;;;2.83;2.60;;;10.80;99.90;;;;;;5135997;27;20571;-63
2022/10/12 11:28:33;;;;;;;6.20;2.60;;;10.70;99.90;;;;;;5135956;27;20456;-64
2022/10/12 11:31:08;;;;;;;2.97;2.03;;;10.70;99.90;;;;;;5122745;27;20491;-64
2022/10/12 11:33:42;;;;;;;2.50;2.30;;;10.70;99.90;;;;;;5129697;27;20499;-63
2022/10/12 11:36:15;;;;;;;2.83;2.40;;;10.60;99.90;;;;;;5119263;27;20493;-65
2022/10/12 11:38:54;;;;;;;4.77;2.47;;;10.60;99.90;;;;;;5122471;27;20505;-64
2022/10/12 11:41:34;;;;;;;2.83;2.10;;;10.50;99.90;;;;;;5129943;27;20454;-64
2022/10/12 11:44:12;;;;;;;2.53;2.30;;;10.40;99.90;;;;;;5137355;27;20968;-62
2022/10/12 11:46:47;;;;;;;1.90;1.77;;;10.40;99.90;;;;;;5142585;27;20454;-65
2022/10/12 11:49:26;;;;;;;2.30;2.13;;;10.40;99.90;;;;;;5144560;27;20939;-64
2022/10/12 11:52:00;;;;;;;4.53;2.40;;;10.40;99.90;;;;;;5144344;27;20453;-63
2022/10/12 11:54:37;;;;;;;3.83;2.20;;;10.40;99.90;;;;;;5144114;27;20445;-63
2022/10/12 11:57:14;;;;;;;3.07;1.93;;;10.40;99.90;;;;;;5113524;27;20497;-65
2022/10/12 11:59:49;;;;;;;3.27;2.07;;;10.30;99.90;;;;;;5124512;27;20464;-64
2022/10/12 12:02:26;;;;;;;5.00;2.17;;;10.30;99.90;;;;;;5143930;27;20517;-64
2022/10/12 12:04:57;;;;;;;5.43;2.17;;;10.30;99.90;;;;;;5134714;27;20501;-64
2022/10/12 12:07:44;;;;;;;3.20;2.73;;;10.40;99.90;;;;;;5144259;27;20477;-64
2022/10/12 12:10:52;;;;;;;2.13;1.93;;;10.30;99.90;;;;;;5137940;27;20468;-65
2022/10/12 12:13:25;;;;;;;2.13;2.03;;;10.20;99.90;;;;;;5136763;27;20485;-65
2022/10/12 12:16:31;;;;;;;4.70;2.10;;;10.20;99.90;;;;;;5132482;27;20504;-64
2022/10/12 12:19:32;;;;;;;4.10;2.70;;;10.20;99.90;;;;;;5104430;28;20462;-65
2022/10/12 12:22:27;;;;;;;1.93;1.50;;;10.20;99.90;;;;;;5127868;27;20485;-64
2022/10/12 12:25:23;;;;;;;3.27;2.33;;;10.20;99.90;;;;;;5108578;27;20460;-65
2022/10/12 12:27:56;;;;;;;4.00;2.30;;;10.30;99.90;;;;;;5123695;27;20537;-65
2022/10/12 12:30:37;;;;;;;2.70;2.50;;;10.20;99.90;;;;;;5130837;27;20539;-64
2022/10/12 12:33:28;;;;;;;4.70;2.50;;;10.20;99.90;;;;;;5133996;27;20476;-64
2022/10/12 12:36:03;;;;;;;3.97;3.00;;;10.10;99.90;;;;;;5124018;27;20957;-64
2022/10/12 12:38:36;;;;;;;3.13;2.47;;;10.10;99.90;;;;;;5119012;27;20813;-62
2022/10/12 12:41:11;;;;;;;2.70;2.03;;;10.10;99.90;;;;;;5122892;27;20572;-62
2022/10/12 12:44:03;;;;;;;2.97;2.20;;;10.10;99.90;;;;;;5131300;27;20457;-62
2022/10/12 12:47:17;;;;;;;2.20;2.00;;;10.10;99.90;;;;;;5130077;27;20573;-63
2022/10/12 12:50:32;;;;;;;2.63;2.07;;;10.10;99.90;;;;;;5130350;27;20477;-63
2022/10/12 12:53:08;;;;;;;3.20;2.17;;;10.10;99.90;;;;;;5110819;27;21339;-63
2022/10/12 12:56:03;;;;;;;2.20;2.00;;;10.10;99.90;;;;;;5133986;27;20464;-63
2022/10/12 12:59:05;;;;;;;3.33;2.43;;;10.10;99.90;;;;;;5119929;27;20564;-63
2022/10/12 13:01:53;;;;;;;3.27;2.00;;;10.10;99.90;;;;;;5122966;27;20947;-64
2022/10/12 13:04:51;;;;;;;2.93;2.60;;;10.00;99.90;;;;;;5121740;27;20476;-63
2022/10/12 13:07:53;;;;;;;2.30;2.10;;;10.00;99.90;;;;;;5126311;27;20488;-64
2022/10/12 13:10:41;;;;;;;2.03;1.83;;;10.00;99.90;;;;;;5128871;27;20453;-64
2022/10/12 13:13:37;;;;;;;2.83;2.20;;;10.00;99.90;;;;;;5136264;27;20640;-64
2022/10/12 13:16:20;;;;;;;2.80;2.07;;;10.00;99.90;;;;;;5128220;27;20436;-64
2022/10/12 13:19:13;;;;;;;3.13;1.83;;;10.00;99.90;;;;;;5131478;27;20471;-64
2022/10/12 13:21:53;;;;;;;3.33;2.90;;;9.90;99.90;;;;;;5132425;27;20456;-64
2022/10/12 13:24:27;;;;;;;5.20;2.87;;;9.90;99.90;;;;;;5139613;27;20464;-64
2022/10/12 13:27:05;;;;;;;3.03;2.30;;;9.90;99.90;;;;;;5124687;27;20458;-63
2022/10/12 13:29:42;;;;;;;3.07;2.53;;;10.00;99.90;;;;;;5137949;27;20464;-64
2022/10/12 13:32:23;;;;;;;2.70;2.47;;;10.00;99.90;;;;;;5138099;27;20976;-63